TimePST,TemperatureF,Dew PointF,Humidity,Sea Level PressureIn,VisibilityMPH,Wind Direction,Wind SpeedMPH,Gust SpeedMPH,PrecipitationIn,Events,Conditions,WindDirDegrees,DateUTC
12:56 AM,26.1,7.0,44,30.31,10.0,Calm,Calm,-,N/A,,Clear,0,2013-01-02 08:56:00
1:56 AM,21.9,6.1,51,30.31,10.0,Calm,Calm,-,N/A,,Clear,0,2013-01-02 09:56:00
2:56 AM,19.9,6.1,55,30.31,10.0,Calm,Calm,-,N/A,,Clear,0,2013-01-02 10:56:00
3:56 AM,19.0,5.0,54,30.31,10.0,South,4.6,-,N/A,,Clear,180,2013-01-02 11:56:00
4:56 AM,19.0,7.0,59,30.31,10.0,Calm,Calm,-,N/A,,Clear,0,2013-01-02 12:56:00
5:56 AM,15.1,3.9,61,30.32,10.0,Calm,Calm,-,N/A,,Clear,0,2013-01-02 13:56:00
6:56 AM,14.0,3.0,62,30.32,10.0,West,6.9,-,N/A,,Clear,270,2013-01-02 14:56:00
7:56 AM,21.0,7.0,55,30.31,10.0,West,4.6,-,N/A,,Clear,270,2013-01-02 15:56:00
8:56 AM,33.1,9.0,37,30.30,10.0,Calm,Calm,-,N/A,,Clear,0,2013-01-02 16:56:00
9:56 AM,41.0,12.0,31,30.29,10.0,ENE,6.9,-,N/A,,Clear,60,2013-01-02 17:56:00
10:56 AM,48.9,10.0,21,30.27,10.0,NE,10.4,-,N/A,,Clear,40,2013-01-02 18:56:00
11:56 AM,50.0,8.1,18,30.25,10.0,NNE,9.2,-,N/A,,Clear,20,2013-01-02 19:56:00
12:56 PM,52.0,8.1,17,30.21,10.0,NE,11.5,-,N/A,,Clear,40,2013-01-02 20:56:00
1:56 PM,53.1,8.1,16,30.20,10.0,NE,8.1,-,N/A,,Clear,40,2013-01-02 21:56:00
2:56 PM,53.1,9.0,17,30.19,10.0,NE,6.9,-,N/A,,Clear,50,2013-01-02 22:56:00
3:56 PM,53.1,9.0,17,30.19,10.0,NE,8.1,-,N/A,,Clear,40,2013-01-02 23:56:00
4:56 PM,45.0,9.0,23,30.21,10.0,NNE,6.9,-,N/A,,Clear,20,2013-01-03 00:56:00
5:56 PM,37.9,7.0,28,30.23,10.0,North,3.5,-,N/A,,Clear,350,2013-01-03 01:56:00
6:56 PM,33.1,5.0,31,30.25,10.0,NNW,9.2,-,N/A,,Clear,330,2013-01-03 02:56:00
7:56 PM,33.1,7.0,34,30.25,10.0,WSW,3.5,-,N/A,,Clear,240,2013-01-03 03:56:00
8:56 PM,30.9,8.1,38,30.23,10.0,West,6.9,-,N/A,,Clear,280,2013-01-03 04:56:00
9:56 PM,28.0,7.0,41,30.23,10.0,Calm,Calm,-,N/A,,Clear,0,2013-01-03 05:56:00
10:56 PM,25.0,6.1,45,30.22,10.0,NW,6.9,-,N/A,,Clear,310,2013-01-03 06:56:00
11:56 PM,26.1,8.1,47,30.23,10.0,WSW,6.9,-,N/A,,Clear,250,2013-01-03 07:56:00